sensor_id;sensor_type;location;lat;lon;timestamp;temperature;humidity
26049;DHT22;13822;51.568;5.086;2023-03-02T05:37:32;0.40;99.90
26049;DHT22;13822;51.568;5.086;2023-03-02T05:57:05;0.20;99.90
26049;DHT22;13822;51.568;5.086;2023-03-02T06:03:10;0.20;99.90
26049;DHT22;13822;51.568;5.086;2023-03-02T06:22:44;0.10;99.90
26049;DHT22;13822;51.568;5.086;2023-03-02T06:27:47;0.00;99.90
26049;DHT22;13822;51.568;5.086;2023-03-02T06:32:52;0.00;99.90
26049;DHT22;13822;51.568;5.086;2023-03-02T06:37:54;0.00;99.90
26049;DHT22;13822;51.568;5.086;2023-03-02T06:42:56;0.00;99.90
26049;DHT22;13822;51.568;5.086;2023-03-02T06:48:02;0.00;99.90
26049;DHT22;13822;51.568;5.086;2023-03-02T06:53:04;0.00;99.90
26049;DHT22;13822;51.568;5.086;2023-03-02T06:58:06;-0.10;99.90
26049;DHT22;13822;51.568;5.086;2023-03-02T07:03:13;0.00;99.90
26049;DHT22;13822;51.568;5.086;2023-03-02T07:08:15;0.00;99.90
26049;DHT22;13822;51.568;5.086;2023-03-02T07:13:17;0.00;99.90
26049;DHT22;13822;51.568;5.086;2023-03-02T07:18:19;0.00;99.90
26049;DHT22;13822;51.568;5.086;2023-03-02T07:23:21;0.00;99.90
26049;DHT22;13822;51.568;5.086;2023-03-02T07:28:23;0.00;99.90
26049;DHT22;13822;51.568;5.086;2023-03-02T07:33:25;0.10;99.90
26049;DHT22;13822;51.568;5.086;2023-03-02T07:38:27;0.10;99.90
26049;DHT22;13822;51.568;5.086;2023-03-02T07:43:29;0.20;99.90
26049;DHT22;13822;51.568;5.086;2023-03-02T07:48:31;0.20;99.90
26049;DHT22;13822;51.568;5.086;2023-03-02T07:53:34;0.30;99.90
26049;DHT22;13822;51.568;5.086;2023-03-02T07:58:36;0.30;99.90
26049;DHT22;13822;51.568;5.086;2023-03-02T08:03:38;0.40;99.90
26049;DHT22;13822;51.568;5.086;2023-03-02T08:08:40;0.50;99.90
26049;DHT22;13822;51.568;5.086;2023-03-02T08:13:45;0.60;99.90
26049;DHT22;13822;51.568;5.086;2023-03-02T08:18:47;0.60;99.90
26049;DHT22;13822;51.568;5.086;2023-03-02T08:23:49;0.70;99.90
26049;DHT22;13822;51.568;5.086;2023-03-02T08:28:51;0.80;99.90
26049;DHT22;13822;51.568;5.086;2023-03-02T08:33:53;0.90;99.90
26049;DHT22;13822;51.568;5.086;2023-03-02T08:38:55;1.00;99.90
26049;DHT22;13822;51.568;5.086;2023-03-02T08:43:57;1.10;99.90
26049;DHT22;13822;51.568;5.086;2023-03-02T08:48:59;1.20;99.90
26049;DHT22;13822;51.568;5.086;2023-03-02T08:54:01;1.30;99.90
26049;DHT22;13822;51.568;5.086;2023-03-02T08:59:04;1.50;99.90
26049;DHT22;13822;51.568;5.086;2023-03-02T09:04:08;1.60;99.90
26049;DHT22;13822;51.568;5.086;2023-03-02T09:09:11;1.70;99.90
26049;DHT22;13822;51.568;5.086;2023-03-02T09:14:14;1.80;99.90
26049;DHT22;13822;51.568;5.086;2023-03-02T09:19:16;2.00;99.90
26049;DHT22;13822;51.568;5.086;2023-03-02T09:24:18;2.10;99.90
26049;DHT22;13822;51.568;5.086;2023-03-02T09:29:20;2.20;99.90
26049;DHT22;13822;51.568;5.086;2023-03-02T09:34:22;2.30;99.90
26049;DHT22;13822;51.568;5.086;2023-03-02T09:39:24;2.50;99.90
26049;DHT22;13822;51.568;5.086;2023-03-02T09:44:43;2.60;99.90
26049;DHT22;13822;51.568;5.086;2023-03-02T09:55:30;3.00;99.90
26049;DHT22;13822;51.568;5.086;2023-03-02T10:00:35;3.10;99.90
26049;DHT22;13822;51.568;5.086;2023-03-02T10:05:38;3.30;99.90
26049;DHT22;13822;51.568;5.086;2023-03-02T10:10:44;3.50;99.90
26049;DHT22;13822;51.568;5.086;2023-03-02T10:32:11;4.20;99.90
26049;DHT22;13822;51.568;5.086;2023-03-02T10:37:20;4.30;99.90
26049;DHT22;13822;51.568;5.086;2023-03-02T10:42:30;4.30;99.90
26049;DHT22;13822;51.568;5.086;2023-03-02T10:47:34;4.40;99.90
26049;DHT22;13822;51.568;5.086;2023-03-02T10:52:36;4.50;99.90
26049;DHT22;13822;51.568;5.086;2023-03-02T11:07:56;4.90;99.90
26049;DHT22;13822;51.568;5.086;2023-03-02T11:13:19;5.00;99.90
26049;DHT22;13822;51.568;5.086;2023-03-02T11:18:37;5.10;99.90
26049;DHT22;13822;51.568;5.086;2023-03-02T11:39:22;5.50;99.90
26049;DHT22;13822;51.568;5.086;2023-03-02T11:44:29;5.60;99.90
26049;DHT22;13822;51.568;5.086;2023-03-02T11:49:35;5.80;99.90
26049;DHT22;13822;51.568;5.086;2023-03-02T11:54:43;6.00;99.90
26049;DHT22;13822;51.568;5.086;2023-03-02T11:59:47;6.50;99.90
26049;DHT22;13822;51.568;5.086;2023-03-02T12:04:59;6.80;99.90
26049;DHT22;13822;51.568;5.086;2023-03-02T12:10:05;6.80;99.90
26049;DHT22;13822;51.568;5.086;2023-03-02T12:20:29;6.70;99.90
26049;DHT22;13822;51.568;5.086;2023-03-02T12:25:39;6.70;99.90
26049;DHT22;13822;51.568;5.086;2023-03-02T12:30:42;6.70;99.90
26049;DHT22;13822;51.568;5.086;2023-03-02T12:35:44;6.80;99.90
26049;DHT22;13822;51.568;5.086;2023-03-02T12:51:33;7.40;99.90
26049;DHT22;13822;51.568;5.086;2023-03-02T12:56:46;7.70;99.90
26049;DHT22;13822;51.568;5.086;2023-03-02T13:01:48;8.30;99.90
26049;DHT22;13822;51.568;5.086;2023-03-02T13:06:51;8.90;99.90
26049;DHT22;13822;51.568;5.086;2023-03-02T13:11:54;9.60;99.10
26049;DHT22;13822;51.568;5.086;2023-03-02T13:17:00;10.20;97.20
26049;DHT22;13822;51.568;5.086;2023-03-02T13:22:06;10.70;93.10
26049;DHT22;13822;51.568;5.086;2023-03-02T13:27:18;11.50;94.00
26049;DHT22;13822;51.568;5.086;2023-03-02T13:32:25;11.80;81.90
26049;DHT22;13822;51.568;5.086;2023-03-02T13:37:38;11.90;77.40
26049;DHT22;13822;51.568;5.086;2023-03-02T13:42:44;11.90;79.50
26049;DHT22;13822;51.568;5.086;2023-03-02T13:47:46;12.10;82.20
26049;DHT22;13822;51.568;5.086;2023-03-02T13:52:48;12.40;78.90
26049;DHT22;13822;51.568;5.086;2023-03-02T13:57:51;12.40;73.00
26049;DHT22;13822;51.568;5.086;2023-03-02T14:02:53;12.30;70.40
26049;DHT22;13822;51.568;5.086;2023-03-02T14:07:55;12.40;71.10
26049;DHT22;13822;51.568;5.086;2023-03-02T14:18:55;12.60;65.20
26049;DHT22;13822;51.568;5.086;2023-03-02T14:23:37;12.70;65.20
26049;DHT22;13822;51.568;5.086;2023-03-02T14:28:41;12.80;62.20
26049;DHT22;13822;51.568;5.086;2023-03-02T14:33:43;13.00;60.90
26049;DHT22;13822;51.568;5.086;2023-03-02T14:38:45;12.90;60.00
26049;DHT22;13822;51.568;5.086;2023-03-02T14:43:48;12.70;58.10
26049;DHT22;13822;51.568;5.086;2023-03-02T14:48:49;12.70;57.80
26049;DHT22;13822;51.568;5.086;2023-03-02T14:53:52;12.80;57.10
26049;DHT22;13822;51.568;5.086;2023-03-02T14:58:54;12.70;56.80
26049;DHT22;13822;51.568;5.086;2023-03-02T15:03:58;12.50;55.40
26049;DHT22;13822;51.568;5.086;2023-03-02T15:09:00;12.10;55.50
26049;DHT22;13822;51.568;5.086;2023-03-02T15:14:02;11.50;57.80
26049;DHT22;13822;51.568;5.086;2023-03-02T15:19:04;11.10;58.10
26049;DHT22;13822;51.568;5.086;2023-03-02T15:24:06;11.20;59.10
26049;DHT22;13822;51.568;5.086;2023-03-02T15:29:08;11.40;63.00
26049;DHT22;13822;51.568;5.086;2023-03-02T15:34:10;11.60;61.40
26049;DHT22;13822;51.568;5.086;2023-03-02T15:39:14;11.80;59.30
26049;DHT22;13822;51.568;5.086;2023-03-02T15:44:17;11.90;59.90
26049;DHT22;13822;51.568;5.086;2023-03-02T15:49:23;11.80;62.20
26049;DHT22;13822;51.568;5.086;2023-03-02T15:54:27;11.80;64.50
26049;DHT22;13822;51.568;5.086;2023-03-02T15:59:30;11.60;68.00
26049;DHT22;13822;51.568;5.086;2023-03-02T16:04:33;11.50;69.60
26049;DHT22;13822;51.568;5.086;2023-03-02T16:09:35;11.40;69.10
26049;DHT22;13822;51.568;5.086;2023-03-02T16:14:37;11.10;66.90
26049;DHT22;13822;51.568;5.086;2023-03-02T16:19:40;11.00;69.70
26049;DHT22;13822;51.568;5.086;2023-03-02T16:24:42;10.80;71.40
26049;DHT22;13822;51.568;5.086;2023-03-02T16:29:43;10.50;73.30
26049;DHT22;13822;51.568;5.086;2023-03-02T16:34:45;10.30;76.20
26049;DHT22;13822;51.568;5.086;2023-03-02T16:39:47;10.00;76.30
26049;DHT22;13822;51.568;5.086;2023-03-02T16:44:49;9.70;77.70
26049;DHT22;13822;51.568;5.086;2023-03-02T16:49:51;9.50;79.40
26049;DHT22;13822;51.568;5.086;2023-03-02T16:54:53;9.30;81.20
26049;DHT22;13822;51.568;5.086;2023-03-02T16:59:55;9.10;82.90
26049;DHT22;13822;51.568;5.086;2023-03-02T17:04:57;9.00;84.70
26049;DHT22;13822;51.568;5.086;2023-03-02T17:09:59;8.80;88.20
26049;DHT22;13822;51.568;5.086;2023-03-02T17:15:01;8.60;90.40
26049;DHT22;13822;51.568;5.086;2023-03-02T17:20:03;8.40;91.50
26049;DHT22;13822;51.568;5.086;2023-03-02T17:25:06;8.30;92.70
26049;DHT22;13822;51.568;5.086;2023-03-02T17:30:10;8.10;93.70
26049;DHT22;13822;51.568;5.086;2023-03-02T17:35:13;8.00;94.60
26049;DHT22;13822;51.568;5.086;2023-03-02T17:40:15;7.90;95.40
26049;DHT22;13822;51.568;5.086;2023-03-02T17:45:22;7.70;96.40
26049;DHT22;13822;51.568;5.086;2023-03-02T17:50:26;7.60;97.00
26049;DHT22;13822;51.568;5.086;2023-03-02T17:55:30;7.50;97.90
26049;DHT22;13822;51.568;5.086;2023-03-02T18:00:32;7.40;98.60
26049;DHT22;13822;51.568;5.086;2023-03-02T18:05:34;7.30;99.50
26049;DHT22;13822;51.568;5.086;2023-03-02T18:10:36;7.20;99.90
26049;DHT22;13822;51.568;5.086;2023-03-02T18:15:38;7.00;99.90
26049;DHT22;13822;51.568;5.086;2023-03-02T18:20:40;6.90;99.90
26049;DHT22;13822;51.568;5.086;2023-03-02T18:25:42;6.80;99.90
26049;DHT22;13822;51.568;5.086;2023-03-02T18:30:44;6.80;99.90
26049;DHT22;13822;51.568;5.086;2023-03-02T18:35:46;6.60;99.90
